createdAt,value
2022-08-11T00:02:32.106Z,97925.19
2022-08-11T00:05:06.170Z,97922.38
2022-08-11T00:07:36.145Z,97927.69
2022-08-11T00:10:04.700Z,97927.91
2022-08-11T00:12:33.110Z,97933.03
2022-08-11T00:15:02.249Z,97935.13
2022-08-11T00:17:34.098Z,97936.91
2022-08-11T00:20:15.369Z,97936.38
2022-08-11T00:22:47.951Z,97929.66
2022-08-11T00:25:18.453Z,97941.66
2022-08-11T00:27:48.072Z,97945.06
2022-08-11T00:30:17.315Z,97937.31
2022-08-11T00:32:54.827Z,97922.84
2022-08-11T00:35:51.762Z,97927.84
2022-08-11T00:38:18.287Z,97927.50
2022-08-11T00:40:53.121Z,97929.53
2022-08-11T00:43:43.416Z,97924.88
2022-08-11T00:46:19.256Z,97928.88
2022-08-11T00:48:57.204Z,97916.13
2022-08-11T00:52:02.295Z,97928.06
2022-08-11T00:54:54.629Z,97925.09
2022-08-11T00:58:07.219Z,97914.91
2022-08-11T01:00:48.510Z,97908.56
2022-08-11T01:03:26.435Z,97911.63
2022-08-11T01:06:22.700Z,97907.19
2022-08-11T01:09:24.303Z,97913.41
2022-08-11T01:12:07.110Z,97906.56
2022-08-11T01:15:09.677Z,97909.78
2022-08-11T01:18:12.444Z,97907.28
2022-08-11T01:21:19.887Z,97910.56
2022-08-11T01:24:31.409Z,97910.16
2022-08-11T01:27:39.622Z,97913.19
2022-08-11T01:30:49.780Z,97909.44
2022-08-11T01:33:52.818Z,97906.75
2022-08-11T01:36:56.618Z,97913.94
2022-08-11T01:39:55.516Z,97908.41
2022-08-11T01:43:17.117Z,97902.66
2022-08-11T01:45:51.755Z,97903.72
2022-08-11T01:48:29.502Z,97896.75
2022-08-11T01:51:17.283Z,97892.75
2022-08-11T01:53:56.555Z,97890.97
2022-08-11T01:56:35.476Z,97887.94
2022-08-11T01:59:12.176Z,97884.91
2022-08-11T02:01:51.942Z,97887.69
2022-08-11T02:04:31.963Z,97889.66
2022-08-11T02:07:08.838Z,97885.06
2022-08-11T02:09:57.511Z,97885.84
2022-08-11T02:12:52.504Z,97886.69
2022-08-11T02:15:28.815Z,97879.91
2022-08-11T02:18:07.399Z,97890.19
2022-08-11T02:21:01.553Z,97882.88
2022-08-11T02:24:06.642Z,97877.63
2022-08-11T02:26:40.371Z,97883.75
2022-08-11T02:29:15.423Z,97877.38
2022-08-11T02:32:24.276Z,97883.28
2022-08-11T02:35:01.335Z,97876.63
2022-08-11T02:37:39.132Z,97881.09
2022-08-11T02:40:18.178Z,97878.81
2022-08-11T02:42:59.737Z,97880.56
2022-08-11T02:45:42.202Z,97887.31
2022-08-11T02:49:01.554Z,97888.78
2022-08-11T02:51:39.046Z,97888.53
2022-08-11T02:54:12.555Z,97890.38
2022-08-11T02:56:52.744Z,97893.72
2022-08-11T02:59:53.871Z,97897.28
2022-08-11T03:02:31.673Z,97897.13
2022-08-11T03:05:09.228Z,97905.97
2022-08-11T03:08:08.825Z,97900.41
2022-08-11T03:10:45.262Z,97894.94
2022-08-11T03:13:38.463Z,97896.75
2022-08-11T03:16:32.470Z,97898.06
2022-08-11T03:19:08.907Z,97902.22
2022-08-11T03:22:02.474Z,97897.66
2022-08-11T03:24:38.592Z,97900.84
2022-08-11T03:27:11.099Z,97895.03
2022-08-11T03:29:44.675Z,97904.06
2022-08-11T03:32:25.849Z,97916.38
2022-08-11T03:34:55.183Z,97906.56
2022-08-11T03:37:50.530Z,97917.38
2022-08-11T03:40:52.629Z,97921.66
2022-08-11T03:43:30.617Z,97919.28
2022-08-11T03:46:05.402Z,97924.44
2022-08-11T03:48:44.679Z,97929.22
2022-08-11T03:51:21.285Z,97928.66
2022-08-11T03:53:57.525Z,97932.75
2022-08-11T03:57:16.214Z,97934.56
2022-08-11T04:00:12.361Z,97935.13
2022-08-11T04:02:57.167Z,97937.81
2022-08-11T04:06:03.656Z,97938.34
2022-08-11T04:08:56.946Z,97943.91
2022-08-11T04:11:54.983Z,97940.47
2022-08-11T04:15:01.484Z,97937.81
2022-08-11T04:17:54.131Z,97936.28
2022-08-11T04:20:50.590Z,97941.84
2022-08-11T04:24:35.917Z,97937.03
2022-08-11T04:27:07.369Z,97939.09
2022-08-11T04:30:03.470Z,97943.03
2022-08-11T04:32:46.154Z,97937.72
2022-08-11T04:35:33.386Z,97942.75
2022-08-11T04:38:26.046Z,97940.53
2022-08-11T04:41:58.771Z,97946.63
2022-08-11T04:45:12.151Z,97949.72
2022-08-11T04:48:10.288Z,97950.53
2022-08-11T04:51:23.267Z,97948.91
2022-08-11T04:54:19.550Z,97952.91
2022-08-11T04:57:07.346Z,97950.84
2022-08-11T05:00:07.424Z,97949.13
2022-08-11T05:03:09.230Z,97945.47
2022-08-11T05:05:56.181Z,97950.41
2022-08-11T05:08:48.312Z,97947.66
2022-08-11T05:11:38.082Z,97950.75
2022-08-11T05:14:45.647Z,97942.38
2022-08-11T05:17:34.436Z,97937.53
2022-08-11T05:20:20.397Z,97939.66
2022-08-11T05:23:07.790Z,97929.88
2022-08-11T05:26:44.012Z,97933.56
2022-08-11T05:29:19.801Z,97931.19
2022-08-11T05:32:14.846Z,97934.69
2022-08-11T05:34:54.866Z,97932.72
2022-08-11T05:37:27.829Z,97931.16
2022-08-11T05:40:16.750Z,97931.00
2022-08-11T05:43:07.877Z,97929.41
2022-08-11T05:46:02.557Z,97930.78
2022-08-11T05:48:52.566Z,97931.88
2022-08-11T05:51:38.569Z,97932.84
2022-08-11T05:54:29.509Z,97934.34
2022-08-11T05:57:00.760Z,97929.66
2022-08-11T05:59:29.454Z,97935.56
2022-08-11T06:02:04.244Z,97929.28
2022-08-11T06:04:33.184Z,97927.00
2022-08-11T06:07:04.127Z,97933.63
2022-08-11T06:09:35.147Z,97932.19
2022-08-11T06:12:08.546Z,97931.75
2022-08-11T06:14:43.625Z,97927.75
2022-08-11T06:17:13.863Z,97931.25
2022-08-11T06:19:43.751Z,97927.34
2022-08-11T06:22:12.848Z,97926.63
2022-08-11T06:24:45.600Z,97928.41
2022-08-11T06:27:20.885Z,97922.25
2022-08-11T06:29:54.717Z,97926.22
2022-08-11T06:32:30.690Z,97924.34
2022-08-11T06:35:13.562Z,97927.03
2022-08-11T06:37:48.638Z,97931.84
2022-08-11T06:40:28.588Z,97930.56
2022-08-11T06:43:02.342Z,97928.09
2022-08-11T06:45:40.164Z,97924.69
2022-08-11T06:48:17.518Z,97925.91
2022-08-11T06:51:09.600Z,97927.81
2022-08-11T06:53:41.096Z,97921.19
2022-08-11T06:56:27.742Z,97919.41
2022-08-11T06:59:13.728Z,97922.59
2022-08-11T07:01:49.692Z,97925.13
2022-08-11T07:04:29.826Z,97911.09
2022-08-11T07:07:25.544Z,97920.38
2022-08-11T07:10:35.917Z,97918.53
2022-08-11T07:13:44.654Z,97925.50
2022-08-11T07:16:13.904Z,97913.47
2022-08-11T07:19:01.470Z,97918.81
2022-08-11T07:22:02.565Z,97904.97
2022-08-11T07:24:59.549Z,97909.16
2022-08-11T07:27:51.723Z,97910.19
2022-08-11T07:30:20.003Z,97906.66
2022-08-11T07:32:51.726Z,97909.81
2022-08-11T07:35:23.891Z,97908.56
2022-08-11T07:38:01.760Z,97913.06
2022-08-11T07:40:31.599Z,97906.31
2022-08-11T07:43:01.141Z,97905.66
2022-08-11T07:45:46.996Z,97903.84
2022-08-11T07:48:33.881Z,97901.28
2022-08-11T07:51:19.983Z,97898.09
2022-08-11T07:53:58.606Z,97899.22
2022-08-11T07:56:39.492Z,97898.78
2022-08-11T07:59:58.536Z,97902.91
2022-08-11T08:02:58.174Z,97899.19
2022-08-11T08:05:44.016Z,97899.78
2022-08-11T08:08:29.818Z,97894.13
2022-08-11T08:11:16.831Z,97893.69
2022-08-11T08:14:02.882Z,97892.63
2022-08-11T08:16:49.704Z,97887.00
2022-08-11T08:19:20.745Z,97887.78
2022-08-11T08:21:49.293Z,97895.22
2022-08-11T08:24:20.224Z,97886.75
2022-08-11T08:27:03.247Z,97883.09
2022-08-11T08:29:51.860Z,97884.84
2022-08-11T08:32:21.869Z,97886.97
2022-08-11T08:34:54.255Z,97879.69
2022-08-11T08:37:46.710Z,97882.84
2022-08-11T08:40:14.879Z,97882.22
2022-08-11T08:42:51.505Z,97872.91
2022-08-11T08:45:19.883Z,97874.53
2022-08-11T08:47:53.784Z,97877.84
2022-08-11T08:50:27.765Z,97879.25
2022-08-11T08:52:59.713Z,97875.63
2022-08-11T08:55:28.937Z,97876.94
2022-08-11T08:58:00.718Z,97859.31
2022-08-11T09:00:40.140Z,97864.81
2022-08-11T09:03:38.247Z,97858.97
2022-08-11T09:05:57.199Z,97860.84
2022-08-11T09:08:25.598Z,97858.22
2022-08-11T09:11:13.302Z,97858.69
2022-08-11T09:13:44.750Z,97854.72
2022-08-11T09:16:13.441Z,97854.34
2022-08-11T09:18:44.644Z,97856.38
2022-08-11T09:21:14.862Z,97854.72
2022-08-11T09:24:26.086Z,97850.66
2022-08-11T09:27:01.173Z,97846.63
2022-08-11T09:29:32.284Z,97854.06
2022-08-11T09:32:00.993Z,97849.19
2022-08-11T09:34:29.787Z,97842.66
2022-08-11T09:37:19.576Z,97841.34
2022-08-11T09:40:27.247Z,97831.28
2022-08-11T09:43:13.451Z,97828.09
2022-08-11T09:45:46.290Z,97823.97
2022-08-11T09:48:14.759Z,97818.59
2022-08-11T09:50:43.138Z,97822.69
2022-08-11T09:53:36.456Z,97824.44
2022-08-11T09:56:20.889Z,97812.19
2022-08-11T09:58:48.309Z,97816.72
2022-08-11T10:01:27.656Z,97812.28
2022-08-11T10:04:01.417Z,97812.94
2022-08-11T10:06:47.902Z,97811.81
2022-08-11T10:09:25.298Z,97797.88
2022-08-11T10:11:58.576Z,97799.44
2022-08-11T10:14:46.547Z,97796.16
2022-08-11T10:17:17.480Z,97795.50
2022-08-11T10:20:05.207Z,97784.34
2022-08-11T10:22:55.167Z,97783.34
2022-08-11T10:25:41.154Z,97775.69
2022-08-11T10:28:30.371Z,97774.69
2022-08-11T10:31:16.820Z,97772.91
2022-08-11T10:34:03.903Z,97768.38
2022-08-11T10:36:33.813Z,97756.41
2022-08-11T10:39:06.283Z,97760.22
2022-08-11T10:42:08.719Z,97762.47
2022-08-11T10:44:40.145Z,97760.38
2022-08-11T10:47:26.711Z,97749.75
2022-08-11T10:50:11.359Z,97746.78
2022-08-11T10:52:58.305Z,97745.00
2022-08-11T10:55:44.731Z,97744.69
2022-08-11T10:58:30.692Z,97740.03
2022-08-11T11:00:59.423Z,97737.66
2022-08-11T11:03:29.845Z,97742.16
2022-08-11T11:06:27.760Z,97745.78
2022-08-11T11:09:04.030Z,97746.66
2022-08-11T11:11:55.049Z,97741.03
2022-08-11T11:14:46.399Z,97750.19
2022-08-11T11:17:44.049Z,97742.28
2022-08-11T11:20:36.078Z,97740.47
2022-08-11T11:23:09.407Z,97728.56
2022-08-11T11:26:06.763Z,97733.94
2022-08-11T11:29:00.560Z,97731.41
2022-08-11T11:31:40.618Z,97735.56
2022-08-11T11:34:20.118Z,97729.00
2022-08-11T11:36:50.672Z,97723.53
2022-08-11T11:39:23.958Z,97730.09
2022-08-11T11:41:54.681Z,97731.25
2022-08-11T11:44:23.796Z,97729.63
2022-08-11T11:46:52.311Z,97726.84
2022-08-11T11:51:59.490Z,97731.84
2022-08-11T11:54:31.494Z,97727.28
2022-08-11T11:57:20.744Z,97722.22
2022-08-11T12:00:07.199Z,97713.06
2022-08-11T12:02:39.101Z,97710.47
2022-08-11T12:05:09.017Z,97707.47
2022-08-11T12:07:56.897Z,97707.34
2022-08-11T12:10:45.633Z,97697.16
2022-08-11T12:13:32.147Z,97687.72
2022-08-11T12:16:33.683Z,97694.41
2022-08-11T12:18:54.473Z,97684.66
2022-08-11T12:21:23.091Z,97668.97
2022-08-11T12:24:09.253Z,97674.53
2022-08-11T12:27:14.989Z,97660.75
2022-08-11T12:29:45.360Z,97670.47
2022-08-11T12:32:13.594Z,97660.50
2022-08-11T12:34:42.010Z,97665.91
2022-08-11T12:37:13.782Z,97651.59
2022-08-11T12:40:17.187Z,97662.09
2022-08-11T12:43:21.717Z,97655.28
2022-08-11T12:45:52.672Z,97649.56
2022-08-11T12:49:00.784Z,97645.53
2022-08-11T12:52:11.287Z,97641.03
2022-08-11T12:54:46.259Z,97641.03
2022-08-11T12:57:37.438Z,97633.69
2022-08-11T13:00:27.207Z,97625.34
2022-08-11T13:03:13.668Z,97624.94
2022-08-11T13:05:45.080Z,97619.69
2022-08-11T13:08:15.270Z,97615.69
2022-08-11T13:11:02.003Z,97617.00
2022-08-11T13:13:55.741Z,97610.31
2022-08-11T13:16:20.768Z,97605.44
2022-08-11T13:18:50.247Z,97609.41
2022-08-11T13:21:20.060Z,97600.53
2022-08-11T13:24:00.758Z,97602.94
2022-08-11T13:26:46.941Z,97590.41
2022-08-11T13:29:19.930Z,97597.97
2022-08-11T13:31:49.697Z,97586.09
2022-08-11T13:34:18.491Z,97588.44
2022-08-11T13:36:50.110Z,97593.72
2022-08-11T13:39:19.030Z,97580.97
2022-08-11T13:41:48.602Z,97586.56
2022-08-11T13:44:24.708Z,97585.84
2022-08-11T13:46:56.399Z,97587.59
2022-08-11T13:49:25.235Z,97596.38
2022-08-11T13:51:53.999Z,97592.34
2022-08-11T13:54:24.847Z,97585.47
2022-08-11T13:56:56.162Z,97585.13
2022-08-11T13:59:29.904Z,97575.97
2022-08-11T14:02:28.497Z,97585.75
2022-08-11T14:04:55.603Z,97577.41
2022-08-11T14:07:26.102Z,97572.31
2022-08-11T14:09:57.894Z,97574.56
2022-08-11T14:12:45.312Z,97576.81
2022-08-11T14:15:20.216Z,97567.66
2022-08-11T14:17:54.263Z,97566.56
2022-08-11T14:20:40.126Z,97563.88
2022-08-11T14:23:11.096Z,97567.16
2022-08-11T14:26:02.438Z,97559.66
2022-08-11T14:28:39.902Z,97556.88
2022-08-11T14:31:10.334Z,97557.44
2022-08-11T14:33:59.859Z,97552.06
2022-08-11T14:36:31.867Z,97545.34
2022-08-11T14:39:00.217Z,97539.94
2022-08-11T14:42:10.302Z,97537.09
2022-08-11T14:45:02.137Z,97535.66
2022-08-11T14:47:33.152Z,97534.75
2022-08-11T14:50:10.917Z,97530.09
2022-08-11T14:52:51.125Z,97529.47
2022-08-11T14:55:39.673Z,97528.06
2022-08-11T14:58:10.151Z,97529.88
2022-08-11T15:00:39.096Z,97527.53
2022-08-11T15:03:13.555Z,97527.44
2022-08-11T15:05:57.591Z,97530.78
2022-08-11T15:08:42.844Z,97523.81
2022-08-11T15:11:32.416Z,97513.97
2022-08-11T15:14:02.617Z,97527.19
2022-08-11T15:16:53.919Z,97524.66
2022-08-11T15:19:22.646Z,97528.69
2022-08-11T15:22:09.871Z,97529.31
2022-08-11T15:24:38.510Z,97530.75
2022-08-11T15:27:28.504Z,97523.75
2022-08-11T15:30:18.253Z,97529.88
2022-08-11T15:33:20.871Z,97527.25
2022-08-11T15:36:06.453Z,97530.56
2022-08-11T15:38:37.418Z,97530.16
2022-08-11T15:41:24.373Z,97527.94
2022-08-11T15:44:44.453Z,97518.09
2022-08-11T15:47:14.432Z,97517.31
2022-08-11T15:50:11.734Z,97514.56
2022-08-11T15:52:37.945Z,97520.41
2022-08-11T15:55:09.633Z,97515.25
2022-08-11T15:57:55.485Z,97519.16
2022-08-11T16:00:41.852Z,97525.44
2022-08-11T16:04:06.519Z,97515.88
2022-08-11T16:06:17.272Z,97515.41
2022-08-11T16:08:46.199Z,97518.84
2022-08-11T16:11:16.551Z,97527.75
2022-08-11T16:14:02.295Z,97514.38
2022-08-11T16:16:34.599Z,97509.03
2022-08-11T16:19:05.378Z,97522.00
2022-08-11T16:21:36.306Z,97513.31
2022-08-11T16:24:08.113Z,97516.47
2022-08-11T16:27:11.066Z,97519.84
2022-08-11T16:29:32.914Z,97520.09
2022-08-11T16:32:18.388Z,97524.47
2022-08-11T16:35:06.589Z,97524.06
2022-08-11T16:37:55.767Z,97515.31
2022-08-11T16:40:24.648Z,97524.91
2022-08-11T16:43:12.740Z,97523.19
2022-08-11T16:45:59.935Z,97521.25
2022-08-11T16:48:37.325Z,97524.28
2022-08-11T16:51:07.293Z,97520.63
2022-08-11T16:53:59.854Z,97522.38
2022-08-11T16:56:26.772Z,97525.75
2022-08-11T16:59:16.657Z,97533.09
2022-08-11T17:01:49.578Z,97536.16
2022-08-11T17:04:40.313Z,97532.00
2022-08-11T17:07:40.471Z,97531.28
2022-08-11T17:10:55.655Z,97537.41
2022-08-11T17:13:32.248Z,97529.97
2022-08-11T17:16:12.390Z,97528.41
2022-08-11T17:18:47.498Z,97529.97
2022-08-11T17:21:20.117Z,97524.25
2022-08-11T17:23:51.076Z,97527.78
2022-08-11T17:26:27.005Z,97522.34
2022-08-11T17:28:58.415Z,97529.81
2022-08-11T17:31:46.369Z,97530.78
2022-08-11T17:34:32.866Z,97525.09
2022-08-11T17:37:02.527Z,97527.41
2022-08-11T17:39:34.804Z,97525.31
2022-08-11T17:42:20.430Z,97535.66
2022-08-11T17:45:07.027Z,97541.13
2022-08-11T17:47:53.999Z,97529.25
2022-08-11T17:50:22.580Z,97538.69
2022-08-11T17:53:08.862Z,97542.72
2022-08-11T17:55:56.035Z,97545.38
2022-08-11T17:58:44.280Z,97548.16
2022-08-11T18:01:13.238Z,97547.56
2022-08-11T18:03:56.424Z,97545.13
2022-08-11T18:06:33.824Z,97545.97
2022-08-11T18:09:22.905Z,97547.19
2022-08-11T18:12:12.230Z,97551.69
2022-08-11T18:14:59.550Z,97561.59
2022-08-11T18:17:45.108Z,97562.56
2022-08-11T18:20:32.402Z,97563.25
2022-08-11T18:23:18.468Z,97568.34
2022-08-11T18:26:06.475Z,97569.50
2022-08-11T18:28:58.184Z,97573.91
2022-08-11T18:31:44.702Z,97570.97
2022-08-11T18:34:33.007Z,97577.38
2022-08-11T18:37:25.970Z,97578.13
2022-08-11T18:40:17.073Z,97584.38
2022-08-11T18:43:03.984Z,97579.63
2022-08-11T18:45:51.288Z,97579.75
2022-08-11T18:48:54.647Z,97592.72
2022-08-11T18:51:42.114Z,97587.75
2022-08-11T18:54:30.417Z,97597.88
2022-08-11T18:57:19.823Z,97594.16
2022-08-11T19:00:06.671Z,97591.53
2022-08-11T19:02:54.685Z,97592.53
2022-08-11T19:06:35.688Z,97599.97
2022-08-11T19:08:49.334Z,97594.66
2022-08-11T19:11:42.472Z,97595.41
2022-08-11T19:14:30.977Z,97599.06
2022-08-11T19:17:44.786Z,97603.03
2022-08-11T19:20:27.378Z,97605.59
2022-08-11T19:23:14.407Z,97601.94
2022-08-11T19:26:02.423Z,97601.06
2022-08-11T19:28:50.441Z,97601.91
2022-08-11T19:31:42.283Z,97601.66
2022-08-11T19:34:36.234Z,97611.38
2022-08-11T19:37:25.000Z,97606.94
2022-08-11T19:40:11.960Z,97609.31
2022-08-11T19:42:59.271Z,97615.31
2022-08-11T19:45:51.206Z,97624.47
2022-08-11T19:48:40.669Z,97617.22
2022-08-11T19:51:28.171Z,97622.75
2022-08-11T19:54:14.299Z,97614.38
2022-08-11T19:57:01.949Z,97622.78
2022-08-11T19:59:48.578Z,97626.06
2022-08-11T20:02:35.990Z,97615.75
2022-08-11T20:05:22.559Z,97616.88
2022-08-11T20:08:08.549Z,97623.94
2022-08-11T20:10:55.616Z,97617.50
2022-08-11T20:13:43.503Z,97613.56
2022-08-11T20:16:31.418Z,97612.88
2022-08-11T20:19:26.320Z,97614.03
2022-08-11T20:22:26.447Z,97620.16
2022-08-11T20:25:13.597Z,97616.94
2022-08-11T20:28:01.020Z,97621.63
2022-08-11T20:30:47.990Z,97619.41
2022-08-11T20:33:38.194Z,97621.69
2022-08-11T20:36:26.486Z,97628.81
2022-08-11T20:39:13.051Z,97623.84
2022-08-11T20:41:59.708Z,97633.16
2022-08-11T20:44:46.443Z,97630.63
2022-08-11T20:47:33.490Z,97629.28
2022-08-11T20:50:39.655Z,97631.84
2022-08-11T20:53:27.314Z,97629.94
2022-08-11T20:56:14.577Z,97636.72
2022-08-11T20:59:14.273Z,97635.78
2022-08-11T21:02:09.415Z,97631.19
2022-08-11T21:04:55.536Z,97637.66
2022-08-11T21:07:42.450Z,97632.47
2022-08-11T21:10:30.075Z,97634.59
2022-08-11T21:13:26.790Z,97634.72
2022-08-11T21:16:26.354Z,97636.94
2022-08-11T21:19:16.626Z,97643.06
2022-08-11T21:22:03.831Z,97640.19
2022-08-11T21:24:52.427Z,97649.09
2022-08-11T21:27:40.371Z,97641.88
2022-08-11T21:30:27.237Z,97645.19
2022-08-11T21:36:29.166Z,97646.22
2022-08-11T21:39:17.447Z,97646.00
2022-08-11T21:42:05.349Z,97650.25
2022-08-11T21:44:53.798Z,97648.66
2022-08-11T21:47:42.961Z,97648.06
2022-08-11T21:50:30.227Z,97648.47
2022-08-11T21:53:16.799Z,97650.69
2022-08-11T21:56:02.714Z,97654.50
2022-08-11T21:58:49.313Z,97649.44
2022-08-11T22:01:37.289Z,97660.94
2022-08-11T22:04:24.006Z,97651.09
2022-08-11T22:07:10.542Z,97652.09
2022-08-11T22:09:57.148Z,97654.16
2022-08-11T22:12:45.197Z,97654.38
2022-08-11T22:15:31.237Z,97661.69
2022-08-11T22:18:19.709Z,97658.59
2022-08-11T22:21:05.798Z,97649.25
2022-08-11T22:23:52.961Z,97645.88
2022-08-11T22:26:41.287Z,97649.25
2022-08-11T22:29:49.966Z,97645.25
2022-08-11T22:32:34.426Z,97638.66
2022-08-11T22:35:22.830Z,97636.13
2022-08-11T22:38:08.688Z,97628.59
2022-08-11T22:40:55.762Z,97635.78
2022-08-11T22:43:41.708Z,97638.31
2022-08-11T22:46:27.842Z,97630.91
2022-08-11T22:49:14.410Z,97639.41
2022-08-11T22:52:03.505Z,97636.22
2022-08-11T22:54:50.921Z,97633.16
2022-08-11T22:57:36.942Z,97631.75
2022-08-11T23:00:25.061Z,97631.53
2022-08-11T23:03:21.097Z,97623.50
2022-08-11T23:06:23.610Z,97621.53
2022-08-11T23:09:11.762Z,97620.72
2022-08-11T23:12:05.932Z,97620.06
2022-08-11T23:15:04.657Z,97615.47
2022-08-11T23:17:51.954Z,97626.25
2022-08-11T23:20:42.476Z,97616.50
2022-08-11T23:23:30.439Z,97611.31
2022-08-11T23:26:34.884Z,97617.63
2022-08-11T23:29:22.582Z,97622.97
2022-08-11T23:32:09.155Z,97622.34
2022-08-11T23:35:03.860Z,97616.28
2022-08-11T23:37:52.134Z,97617.28
2022-08-11T23:40:40.379Z,97605.28
2022-08-11T23:43:47.500Z,97611.88
2022-08-11T23:46:33.303Z,97605.53
2022-08-11T23:49:21.824Z,97610.72
2022-08-11T23:52:08.406Z,97603.09
2022-08-11T23:54:54.826Z,97605.19
2022-08-11T23:57:47.782Z,97600.06
